Cambridge, Maine
Current Conditions -  °F | °C
As of 5:55 AM on Friday 19 Dec 2014 (Local Time) from KWVL Reporting Station
Broken Clouds Broken Clouds  
Wind Chill: 25°   Ceiling: 5000
Heat Index: 25°   Visibility: 10mi
Dew Point: 18°   Wind: 3mph
Humidity: 74%   Direction: 30°NNE
Pressure: 29.8"   Gusts: NA
Location:  45.02°N, 69.47°W
Report Text: KWVL 191055Z 03003KT 10SM FEW028 BKN050 M04/M08 A2980 RMK AO1
Loading
Personal Weather Stations






























Interactive Weather Map New forecast layout! Learn more

10-Day Weather Forecast

Advertisements
Track Severe Weather on mobile